Time;durP1;ratioP1;P1;durP2;ratioP2;P2;SDS_P1;SDS_P2;PMS_P1;PMS_P2;Temp;Humidity;BMP_temperature;BMP_pressure;BME280_temperature;BME280_humidity;BME280_pressure;Samples;Min_cycle;Max_cycle;Signal;HPM_P1;HPM_P2
2023/10/18 00:01:26;;;;;;;8.65;4.03;;;;;;;-143.29;100.00;62188.47;4993544;28;20032;-91
2023/10/18 00:03:56;;;;;;;11.27;4.53;;;;;;;-143.29;100.00;62188.47;4976360;28;20117;-90
2023/10/18 00:06:23;;;;;;;9.57;3.95;;;;;;;-143.29;100.00;62188.47;4994092;28;20378;-90
2023/10/18 00:08:49;;;;;;;9.82;3.90;;;;;;;-143.29;100.00;62188.47;4993858;28;20467;-91
2023/10/18 00:11:16;;;;;;;10.43;4.25;;;;;;;-143.29;100.00;62188.47;4993922;28;20551;-91
2023/10/18 00:13:42;;;;;;;10.45;4.15;;;;;;;-143.29;100.00;62188.47;4993491;28;20038;-91
2023/10/18 00:16:08;;;;;;;10.73;3.65;;;;;;;-143.29;100.00;62188.47;4991644;28;20050;-91
2023/10/18 00:18:34;;;;;;;7.65;3.58;;;;;;;-143.29;100.00;62188.47;4993753;28;20102;-92
2023/10/18 00:21:05;;;;;;;10.23;3.88;;;;;;;-143.29;100.00;62188.47;4994020;28;20037;-91
2023/10/18 00:23:31;;;;;;;7.30;4.35;;;;;;;-143.29;100.00;62188.47;4993673;28;20029;-91
2023/10/18 00:25:59;;;;;;;6.68;4.00;;;;;;;-143.29;100.00;62188.47;4993598;28;20392;-91
2023/10/18 00:28:25;;;;;;;9.60;3.53;;;;;;;-143.29;100.00;62188.47;4993590;28;20540;-91
2023/10/18 00:30:52;;;;;;;13.68;3.60;;;;;;;-143.29;100.00;62188.47;4992744;28;20125;-90
2023/10/18 00:33:18;;;;;;;6.20;3.35;;;;;;;-143.29;100.00;62188.47;4993385;28;20101;-91
2023/10/18 00:35:47;;;;;;;8.18;2.95;;;;;;;-143.29;100.00;62188.47;4993579;28;20125;-91
2023/10/18 00:38:18;;;;;;;9.38;3.60;;;;;;;-143.29;100.00;62188.47;4993556;28;20037;-91
2023/10/18 00:40:51;;;;;;;10.85;4.57;;;;;;;-143.29;100.00;62188.47;4976096;28;20058;-91
2023/10/18 00:43:20;;;;;;;6.90;3.38;;;;;;;-143.29;100.00;62188.47;4992717;28;20038;-91
2023/10/18 00:45:47;;;;;;;10.18;3.28;;;;;;;-143.29;100.00;62188.47;4972687;28;20018;-91
2023/10/18 00:48:14;;;;;;;11.85;3.95;;;;;;;-143.29;100.00;62188.47;4973821;28;20026;-91
2023/10/18 00:50:43;;;;;;;7.72;3.13;;;;;;;-143.29;100.00;62188.47;4973775;28;20026;-91
2023/10/18 00:53:19;;;;;;;6.47;3.85;;;;;;;-143.29;100.00;62188.47;4973843;28;20038;-91
2023/10/18 00:55:52;;;;;;;12.48;4.93;;;;;;;-143.29;100.00;62188.47;4973828;28;20030;-90
2023/10/18 00:58:20;;;;;;;11.77;3.80;;;;;;;-143.29;100.00;62188.47;4975383;28;20587;-91
2023/10/18 01:00:46;;;;;;;11.35;3.50;;;;;;;-143.29;100.00;62188.47;4993197;28;20037;-91
2023/10/18 01:03:28;;;;;;;10.05;3.28;;;;;;;-143.29;100.00;62188.47;4992912;28;20030;-90
2023/10/18 01:05:59;;;;;;;7.05;3.08;;;;;;;-143.29;100.00;62188.47;4992991;28;20026;-91
2023/10/18 01:08:24;;;;;;;24.30;3.90;;;;;;;-143.29;100.00;62188.47;4992979;28;20038;-91
2023/10/18 01:10:51;;;;;;;10.50;3.70;;;;;;;-143.29;100.00;62188.47;4993167;28;20106;-91
2023/10/18 01:13:20;;;;;;;9.48;2.97;;;;;;;-143.29;100.00;62188.47;4991042;28;20031;-91
2023/10/18 01:15:45;;;;;;;12.20;3.72;;;;;;;-143.29;100.00;62188.47;4992837;28;20548;-91
2023/10/18 01:18:11;;;;;;;10.68;4.70;;;;;;;-143.29;100.00;62188.47;4992815;28;20130;-91
2023/10/18 01:20:40;;;;;;;6.47;3.33;;;;;;;-143.29;100.00;62188.47;4975419;28;20022;-91
2023/10/18 01:23:07;;;;;;;11.50;3.50;;;;;;;-143.29;100.00;62188.47;4975120;28;20029;-91
2023/10/18 01:25:34;;;;;;;6.53;3.10;;;;;;;-143.29;100.00;62188.47;4992961;28;20412;-91
2023/10/18 01:27:59;;;;;;;11.20;3.35;;;;;;;-143.29;100.00;62188.47;4991559;28;20030;-91
2023/10/18 01:30:24;;;;;;;12.38;3.30;;;;;;;-143.29;100.00;62188.47;4992587;28;20030;-91
2023/10/18 01:32:51;;;;;;;10.45;3.30;;;;;;;-143.29;100.00;62188.47;4992637;28;20145;-91
2023/10/18 01:35:16;;;;;;;8.00;3.22;;;;;;;-143.29;100.00;62188.47;4992688;28;20384;-91
2023/10/18 01:37:43;;;;;;;9.98;3.08;;;;;;;-143.29;100.00;62188.47;4992640;28;20029;-91
2023/10/18 01:40:25;;;;;;;7.68;3.20;;;;;;;-143.29;100.00;62188.47;4992741;28;20539;-91
2023/10/18 01:42:58;;;;;;;13.55;2.65;;;;;;;-143.29;100.00;62188.47;4991504;28;20057;-91
2023/10/18 01:45:30;;;;;;;9.80;2.60;;;;;;;-143.29;100.00;62188.47;4992406;28;20417;-91
2023/10/18 01:47:57;;;;;;;10.20;2.90;;;;;;;-143.29;100.00;62188.47;4974767;28;20145;-90
2023/10/18 01:50:23;;;;;;;8.63;3.10;;;;;;;-143.29;100.00;62188.47;4992243;28;20101;-91
2023/10/18 01:52:48;;;;;;;5.22;2.70;;;;;;;-143.29;100.00;62188.47;4992311;28;20113;-91
2023/10/18 01:55:14;;;;;;;8.75;3.15;;;;;;;-143.29;100.00;62188.47;4992403;28;20078;-91
2023/10/18 01:57:41;;;;;;;10.73;3.15;;;;;;;-143.29;100.00;62188.47;4991312;28;20481;-90
2023/10/18 02:00:21;;;;;;;13.13;3.08;;;;;;;-143.29;100.00;62188.47;4975093;28;20037;-92
2023/10/18 02:02:48;;;;;;;8.02;3.08;;;;;;;-143.29;100.00;62188.47;4992181;28;20035;-91
2023/10/18 02:05:15;;;;;;;8.55;2.80;;;;;;;-143.29;100.00;62188.47;4992315;28;20045;-91
2023/10/18 02:07:41;;;;;;;8.05;2.70;;;;;;;-143.29;100.00;62188.47;4992205;28;20448;-91
2023/10/18 02:10:07;;;;;;;7.13;2.60;;;;;;;-143.29;100.00;62188.47;4992473;28;20026;-91
2023/10/18 02:12:33;;;;;;;11.00;2.88;;;;;;;-143.29;100.00;62188.47;4990103;28;20515;-91
2023/10/18 02:15:04;;;;;;;6.25;2.70;;;;;;;-143.29;100.00;62188.47;4989770;28;20033;-91
2023/10/18 02:17:30;;;;;;;13.48;2.92;;;;;;;-143.29;100.00;62188.47;4990934;28;20455;-91
2023/10/18 02:20:00;;;;;;;6.75;2.85;;;;;;;-143.29;100.00;62188.47;4974262;28;20081;-90
2023/10/18 02:22:27;;;;;;;9.98;2.83;;;;;;;-143.29;100.00;62188.47;4991982;28;20485;-91
2023/10/18 02:24:53;;;;;;;5.68;2.70;;;;;;;-143.29;100.00;62188.47;4975948;28;20019;-91
2023/10/18 02:27:19;;;;;;;9.77;3.05;;;;;;;-143.29;100.00;62188.47;4994546;28;20117;-91
2023/10/18 02:29:46;;;;;;;6.22;3.08;;;;;;;-143.29;100.00;62188.47;4978158;28;20471;-90
2023/10/18 02:32:31;;;;;;;7.25;2.97;;;;;;;-143.29;100.00;62188.47;4995484;28;20027;-90
2023/10/18 02:34:57;;;;;;;5.63;2.40;;;;;;;-143.29;100.00;62188.47;4994585;28;20061;-91
2023/10/18 02:37:25;;;;;;;9.15;3.15;;;;;;;-143.29;100.00;62188.47;4995652;28;20366;-91
2023/10/18 02:39:51;;;;;;;12.98;4.32;;;;;;;-143.29;100.00;62188.47;4994920;28;20038;-91
2023/10/18 02:42:18;;;;;;;7.25;2.85;;;;;;;-143.29;100.00;62188.47;4976308;28;20389;-91
2023/10/18 02:44:44;;;;;;;7.20;2.70;;;;;;;-143.29;100.00;62188.47;4995504;28;20022;-91
2023/10/18 02:47:16;;;;;;;8.57;2.80;;;;;;;-143.29;100.00;62188.47;4995463;28;20489;-91
2023/10/18 02:49:45;;;;;;;10.65;3.92;;;;;;;-143.29;100.00;62188.47;4995322;28;20061;-91
2023/10/18 02:52:11;;;;;;;6.07;3.03;;;;;;;-143.29;100.00;62188.47;4995348;28;20029;-91
2023/10/18 02:54:36;;;;;;;5.22;2.97;;;;;;;-143.29;100.00;62188.47;4995326;28;20499;-91
2023/10/18 02:57:02;;;;;;;7.10;2.90;;;;;;;-143.29;100.00;62188.47;4976901;28;20027;-91
2023/10/18 02:59:29;;;;;;;12.00;3.45;;;;;;;-143.29;100.00;62188.47;4995220;28;20432;-91
2023/10/18 03:01:57;;;;;;;8.63;3.47;;;;;;;-143.29;100.00;62188.47;4995010;28;20022;-91
2023/10/18 03:04:26;;;;;;;8.73;3.47;;;;;;;-143.29;100.00;62188.47;4995090;28;20054;-91
2023/10/18 03:06:51;;;;;;;6.80;2.40;;;;;;;-143.29;100.00;62188.47;4995169;28;20062;-91
2023/10/18 03:09:26;;;;;;;12.75;3.47;;;;;;;-143.29;100.00;62188.47;4977598;28;20085;-91
2023/10/18 03:11:55;;;;;;;8.05;2.78;;;;;;;-143.29;100.00;62188.47;4974743;28;20025;-91
2023/10/18 03:17:24;;;;;;;6.88;3.08;;;;;;;-143.29;100.00;62188.47;4993713;28;20041;-92
2023/10/18 03:19:51;;;;;;;8.75;3.28;;;;;;;-143.29;100.00;62188.47;4994867;28;20046;-92
2023/10/18 03:22:21;;;;;;;9.07;2.72;;;;;;;-143.29;100.00;62188.47;4994606;28;20027;-91
2023/10/18 03:24:53;;;;;;;7.88;3.00;;;;;;;-143.29;100.00;62188.47;4977366;28;20468;-91
2023/10/18 03:27:18;;;;;;;9.02;2.78;;;;;;;-143.29;100.00;62188.47;4977209;28;20058;-92
2023/10/18 03:29:43;;;;;;;5.00;3.20;;;;;;;-143.29;100.00;62188.47;4976391;28;20054;-91
2023/10/18 03:32:19;;;;;;;7.80;3.08;;;;;;;-143.29;100.00;62188.47;4994385;28;20463;-92
2023/10/18 03:34:45;;;;;;;7.32;3.40;;;;;;;-143.29;100.00;62188.47;4994436;28;20029;-92
2023/10/18 03:37:24;;;;;;;12.20;3.60;;;;;;;-143.29;100.00;62188.47;4976499;28;20026;-92
2023/10/18 03:39:53;;;;;;;9.13;3.25;;;;;;;-143.29;100.00;62188.47;4977277;28;20027;-92
2023/10/18 03:42:31;;;;;;;9.23;3.33;;;;;;;-143.29;100.00;62188.47;4994255;28;20022;-91
2023/10/18 03:45:11;;;;;;;6.55;3.30;;;;;;;-143.29;100.00;62188.47;4993510;28;20128;-92
2023/10/18 03:47:38;;;;;;;9.65;3.75;;;;;;;-143.29;100.00;62188.47;4994457;28;20030;-91
2023/10/18 03:50:15;;;;;;;9.95;3.70;;;;;;;-143.29;100.00;62188.47;4976913;28;20026;-92
2023/10/18 03:52:41;;;;;;;6.88;3.75;;;;;;;-143.29;100.00;62188.47;4976978;28;20030;-92
2023/10/18 03:55:13;;;;;;;7.75;3.67;;;;;;;-143.29;100.00;62188.47;4994509;28;20493;-92
2023/10/18 03:57:39;;;;;;;7.72;3.15;;;;;;;-143.29;100.00;62188.47;4994559;28;20576;-92
2023/10/18 04:02:52;;;;;;;8.15;3.95;;;;;;;-143.29;100.00;62188.47;4994176;28;20030;-91
2023/10/18 04:07:58;;;;;;;8.85;3.28;;;;;;;-143.29;100.00;62188.47;4994385;28;20038;-91
2023/10/18 04:10:27;;;;;;;7.65;3.67;;;;;;;-143.29;100.00;62188.47;4976674;28;20026;-91
2023/10/18 04:12:53;;;;;;;8.13;3.65;;;;;;;-143.29;100.00;62188.47;4993892;28;20072;-91
2023/10/18 04:15:23;;;;;;;11.45;3.67;;;;;;;-143.29;100.00;62188.47;4992180;28;20030;-92
2023/10/18 04:20:33;;;;;;;10.15;3.13;;;;;;;-143.29;100.00;62188.47;4994133;28;20073;-92
2023/10/18 04:22:58;;;;;;;11.13;3.65;;;;;;;-143.29;100.00;62188.47;4993780;28;20038;-91
2023/10/18 04:25:26;;;;;;;18.88;4.50;;;;;;;-143.29;100.00;62188.47;4993741;28;20443;-91
2023/10/18 04:27:53;;;;;;;10.23;3.00;;;;;;;-143.29;100.00;62188.47;4974932;28;20440;-91
2023/10/18 04:30:22;;;;;;;13.85;6.00;;;;;;;-143.29;100.00;62188.47;4990630;28;20022;-91
2023/10/18 04:32:53;;;;;;;10.70;3.80;;;;;;;-143.29;100.00;62188.47;4976218;28;20064;-91
2023/10/18 04:35:25;;;;;;;7.97;3.33;;;;;;;-143.29;100.00;62188.47;4993394;28;20377;-91
2023/10/18 04:37:51;;;;;;;12.85;4.63;;;;;;;-143.29;100.00;62188.47;4993638;28;20053;-91
2023/10/18 04:40:28;;;;;;;34.85;4.70;;;;;;;-143.29;100.00;62188.47;4993584;28;20018;-92
2023/10/18 04:42:57;;;;;;;8.13;3.25;;;;;;;-143.29;100.00;62188.47;4975739;28;20038;-90
2023/10/18 04:45:26;;;;;;;6.93;3.22;;;;;;;-143.29;100.00;62188.47;4992652;28;20030;-90
2023/10/18 04:47:58;;;;;;;9.90;3.67;;;;;;;-143.29;100.00;62188.47;4993379;28;20081;-91
2023/10/18 04:50:32;;;;;;;8.75;3.85;;;;;;;-143.29;100.00;62188.47;4975850;28;20029;-91
2023/10/18 04:53:09;;;;;;;9.05;3.72;;;;;;;-143.29;100.00;62188.47;4975746;28;20022;-90
2023/10/18 04:55:41;;;;;;;7.47;3.45;;;;;;;-143.29;100.00;62188.47;4993076;28;20049;-90
2023/10/18 04:58:07;;;;;;;5.72;2.42;;;;;;;-143.29;100.00;62188.47;4975608;28;20542;-90
2023/10/18 05:00:50;;;;;;;9.32;3.92;;;;;;;-143.29;100.00;62188.47;4991602;28;20201;-92
2023/10/18 05:03:17;;;;;;;12.68;3.50;;;;;;;-143.29;100.00;62188.47;4975944;28;20385;-91
2023/10/18 05:05:52;;;;;;;7.60;3.38;;;;;;;-143.29;100.00;62188.47;4975441;28;20503;-91
2023/10/18 05:08:17;;;;;;;15.30;3.75;;;;;;;-143.29;100.00;62188.47;4992844;28;20101;-91
2023/10/18 05:10:45;;;;;;;16.30;3.60;;;;;;;-143.29;100.00;62188.47;4975660;28;20026;-90
2023/10/18 05:16:00;;;;;;;9.35;4.25;;;;;;;-143.29;100.00;62188.47;4992118;28;20049;-91
2023/10/18 05:18:26;;;;;;;9.50;3.70;;;;;;;-143.29;100.00;62188.47;4990765;28;20087;-91
2023/10/18 05:23:23;;;;;;;6.88;3.33;;;;;;;-143.29;100.00;62188.47;4992618;28;20027;-90
2023/10/18 05:26:24;;;;;;;12.00;4.63;;;;;;;-143.29;100.00;62188.47;4992775;28;20068;-91
2023/10/18 05:28:47;;;;;;;9.35;3.60;;;;;;;-143.29;100.00;62188.47;4989559;28;20056;-90
2023/10/18 05:34:02;;;;;;;7.75;3.60;;;;;;;-143.29;100.00;62188.47;4993026;28;20031;-90
2023/10/18 05:39:49;;;;;;;6.40;3.60;;;;;;;-143.29;100.00;62188.47;4992653;28;20030;-91
2023/10/18 05:42:13;;;;;;;7.32;3.45;;;;;;;-143.29;100.00;62188.47;4990369;28;20530;-91
2023/10/18 05:44:41;;;;;;;15.57;3.70;;;;;;;-143.29;100.00;62188.47;4992781;28;20040;-91
2023/10/18 05:47:06;;;;;;;8.05;3.53;;;;;;;-143.29;100.00;62188.47;4991690;28;20034;-91
2023/10/18 05:49:40;;;;;;;8.38;4.15;;;;;;;-143.29;100.00;62188.47;4992980;28;20022;-92
2023/10/18 05:54:37;;;;;;;11.10;3.78;;;;;;;-143.29;100.00;62188.47;4992809;28;20045;-91
2023/10/18 05:57:03;;;;;;;11.18;3.75;;;;;;;-143.29;100.00;62188.47;4975273;28;20054;-91
2023/10/18 05:59:28;;;;;;;7.40;3.13;;;;;;;-143.29;100.00;62188.47;4993511;28;20030;-90
2023/10/18 06:02:01;;;;;;;9.80;3.85;;;;;;;-143.29;100.00;62188.47;4994486;28;20468;-90
2023/10/18 06:04:29;;;;;;;12.15;4.75;;;;;;;-143.29;100.00;62188.47;4996204;28;20033;-91
2023/10/18 06:07:01;;;;;;;8.18;3.40;;;;;;;-143.29;100.00;62188.47;4978781;28;20472;-91
2023/10/18 06:09:33;;;;;;;15.63;3.72;;;;;;;-143.29;100.00;62188.47;4978941;28;20559;-91
2023/10/18 06:12:03;;;;;;;7.82;3.95;;;;;;;-143.29;100.00;62188.47;4996164;28;20026;-91
2023/10/18 06:14:40;;;;;;;12.38;3.75;;;;;;;-143.29;100.00;62188.47;4995942;28;20035;-91
2023/10/18 06:17:08;;;;;;;11.25;4.57;;;;;;;-143.29;100.00;62188.47;4994162;28;20102;-91
2023/10/18 06:19:36;;;;;;;9.15;3.70;;;;;;;-143.29;100.00;62188.47;4996019;28;20026;-91
2023/10/18 06:22:13;;;;;;;9.40;3.53;;;;;;;-143.29;100.00;62188.47;4995881;28;20028;-91
2023/10/18 06:24:38;;;;;;;10.68;4.05;;;;;;;-143.29;100.00;62188.47;4995859;28;20018;-91
2023/10/18 06:27:04;;;;;;;8.32;3.70;;;;;;;-143.29;100.00;62188.47;4995686;28;20032;-91
2023/10/18 06:29:31;;;;;;;8.77;3.78;;;;;;;-143.29;100.00;62188.47;4995994;28;20473;-91
2023/10/18 06:31:56;;;;;;;6.93;3.25;;;;;;;-143.29;100.00;62188.47;4977271;28;20519;-91
2023/10/18 06:34:26;;;;;;;10.07;3.85;;;;;;;-143.29;100.00;62188.47;4995843;28;20054;-91
2023/10/18 06:36:52;;;;;;;12.13;4.13;;;;;;;-143.29;100.00;62188.47;4995610;28;20027;-91
2023/10/18 06:39:25;;;;;;;7.35;3.83;;;;;;;-143.29;100.00;62188.47;4995762;28;20041;-91
2023/10/18 06:41:55;;;;;;;10.77;3.78;;;;;;;-143.29;100.00;62188.47;4978110;28;20026;-92
2023/10/18 06:44:27;;;;;;;10.75;4.03;;;;;;;-143.29;100.00;62188.47;4995538;28;20022;-91
2023/10/18 06:46:53;;;;;;;10.63;3.63;;;;;;;-143.29;100.00;62188.47;4977039;28;20126;-91
2023/10/18 06:49:19;;;;;;;8.52;4.15;;;;;;;-143.29;100.00;62188.47;4995540;28;20109;-91
2023/10/18 06:51:49;;;;;;;9.98;5.18;;;;;;;-143.29;100.00;62188.47;4995436;28;20290;-90
2023/10/18 06:54:14;;;;;;;9.40;3.78;;;;;;;-143.29;100.00;62188.47;4995786;28;20031;-91
2023/10/18 06:56:45;;;;;;;12.52;3.80;;;;;;;-143.29;100.00;62188.47;4995380;28;20033;-91
2023/10/18 06:59:11;;;;;;;10.70;4.30;;;;;;;-143.29;100.00;62188.47;4972567;28;20108;-91
2023/10/18 07:01:41;;;;;;;8.80;3.45;;;;;;;-143.29;100.00;62188.47;4995200;28;20028;-91
2023/10/18 07:04:26;;;;;;;9.50;3.65;;;;;;;-143.29;100.00;62188.47;4995055;28;20031;-91
2023/10/18 07:06:52;;;;;;;8.82;3.50;;;;;;;-143.29;100.00;62188.47;4994981;28;20410;-91
2023/10/18 07:09:26;;;;;;;18.30;3.83;;;;;;;-143.29;100.00;62188.47;4995175;28;20496;-92
2023/10/18 07:11:53;;;;;;;12.48;4.45;;;;;;;-143.29;100.00;62188.47;4976335;28;20053;-92
2023/10/18 07:14:20;;;;;;;10.98;3.70;;;;;;;-143.29;100.00;62188.47;4990692;28;20034;-90
2023/10/18 07:16:48;;;;;;;11.52;4.05;;;;;;;-143.29;100.00;62188.47;4994953;28;20038;-91
2023/10/18 07:19:26;;;;;;;7.47;3.70;;;;;;;-143.29;100.00;62188.47;4977559;28;20469;-90
2023/10/18 07:21:57;;;;;;;14.55;4.38;;;;;;;-143.29;100.00;62188.47;4977480;28;20100;-91
2023/10/18 07:24:32;;;;;;;10.07;4.15;;;;;;;-143.29;100.00;62188.47;4994885;28;20465;-91
2023/10/18 07:26:59;;;;;;;8.52;4.65;;;;;;;-143.29;100.00;62188.47;4975692;28;20520;-91
2023/10/18 07:29:27;;;;;;;11.18;4.30;;;;;;;-143.29;100.00;62188.47;4973030;28;20030;-91
2023/10/18 07:31:59;;;;;;;13.57;4.57;;;;;;;-143.29;100.00;62188.47;4976704;28;20436;-90
2023/10/18 07:34:32;;;;;;;8.32;3.95;;;;;;;-143.29;100.00;62188.47;4992645;28;20030;-91
2023/10/18 07:36:57;;;;;;;10.15;3.45;;;;;;;-143.29;100.00;62188.47;4994544;28;20022;-91
2023/10/18 07:39:25;;;;;;;8.88;4.07;;;;;;;-143.29;100.00;62188.47;4994805;28;20373;-92
2023/10/18 07:41:52;;;;;;;6.93;3.95;;;;;;;-143.29;100.00;62188.47;4975466;28;20076;-93
2023/10/18 07:44:18;;;;;;;16.77;4.20;;;;;;;-143.29;100.00;62188.47;4992750;28;20081;-91
2023/10/18 07:46:44;;;;;;;9.52;4.05;;;;;;;-143.29;100.00;62188.47;4991706;28;20026;-91
2023/10/18 07:49:11;;;;;;;16.05;4.78;;;;;;;-143.29;100.00;62188.47;4994383;28;20033;-92
2023/10/18 07:51:48;;;;;;;12.45;4.65;;;;;;;-143.29;100.00;62188.47;4976637;28;20026;-93
2023/10/18 07:54:15;;;;;;;31.25;6.97;;;;;;;-143.29;100.00;62188.47;4976531;28;20315;-91
2023/10/18 07:56:50;;;;;;;11.43;5.13;;;;;;;-143.29;100.00;62188.47;4990340;28;20567;-92
2023/10/18 07:59:32;;;;;;;12.05;4.40;;;;;;;-143.29;100.00;62188.47;4994322;28;20109;-91
2023/10/18 08:02:23;;;;;;;9.15;4.38;;;;;;;-143.29;100.00;62188.47;4992967;28;20027;-92
2023/10/18 08:04:49;;;;;;;8.48;4.70;;;;;;;-143.29;100.00;62188.47;4993955;28;20031;-91
2023/10/18 08:07:22;;;;;;;8.68;4.35;;;;;;;-143.29;100.00;62188.47;4976060;28;20033;-91
2023/10/18 08:09:51;;;;;;;13.27;4.22;;;;;;;-143.29;100.00;62188.47;4976546;28;20043;-91
2023/10/18 08:14:54;;;;;;;13.60;4.65;;;;;;;-143.29;100.00;62188.47;4992143;28;20066;-91
2023/10/18 08:22:53;;;;;;;10.35;4.30;;;;;;;-143.29;100.00;62188.47;4993165;28;20106;-91
2023/10/18 08:25:21;;;;;;;14.02;4.68;;;;;;;-143.29;100.00;62188.47;4993505;28;20039;-90
2023/10/18 08:27:53;;;;;;;14.15;4.68;;;;;;;-143.29;100.00;62188.47;4973954;28;20275;-92
2023/10/18 08:33:06;;;;;;;10.85;4.38;;;;;;;-143.29;100.00;62188.47;4992513;28;20550;-90
2023/10/18 08:35:32;;;;;;;8.82;4.65;;;;;;;-143.29;100.00;62188.47;4993350;28;20022;-89
2023/10/18 08:38:03;;;;;;;8.95;4.30;;;;;;;-143.29;100.00;62188.47;4993048;28;20026;-90
2023/10/18 08:43:23;;;;;;;12.57;4.95;;;;;;;-143.29;100.00;62188.47;4991358;28;20034;-91
2023/10/18 08:45:50;;;;;;;12.50;6.97;;;;;;;-143.29;100.00;62188.47;4993032;28;20500;-90
2023/10/18 08:48:17;;;;;;;16.00;7.38;;;;;;;-143.29;100.00;62188.47;4974080;28;20072;-89
2023/10/18 08:50:45;;;;;;;23.90;5.75;;;;;;;-143.29;100.00;62188.47;4974761;28;20033;-90
2023/10/18 08:53:11;;;;;;;25.05;7.32;;;;;;;-143.29;100.00;62188.47;4992497;28;20050;-91
2023/10/18 08:55:43;;;;;;;18.83;5.20;;;;;;;-143.29;100.00;62188.47;4990841;28;20105;-90
2023/10/18 08:58:17;;;;;;;17.75;4.82;;;;;;;-143.29;100.00;62188.47;4973773;28;20014;-89
2023/10/18 09:03:14;;;;;;;14.23;5.00;;;;;;;-143.29;100.00;62188.47;4990517;28;20033;-90
2023/10/18 09:05:40;;;;;;;11.13;4.93;;;;;;;-143.29;100.00;62188.47;5000795;28;20512;-90
2023/10/18 09:08:08;;;;;;;18.92;6.00;;;;;;;-143.29;100.00;62188.47;5012463;28;20033;-93
2023/10/18 09:15:49;;;;;;;12.07;5.20;;;;;;;-143.29;100.00;62188.47;4992018;28;20034;-91
2023/10/18 09:18:15;;;;;;;14.88;5.82;;;;;;;-143.29;100.00;62188.47;4991564;28;20532;-91
2023/10/18 09:20:41;;;;;;;11.23;5.22;;;;;;;-143.29;100.00;62188.47;4992467;28;20062;-93
2023/10/18 09:23:14;;;;;;;15.57;6.28;;;;;;;-143.29;100.00;62188.47;4992154;28;20026;-92
2023/10/18 09:31:11;;;;;;;9.48;5.28;;;;;;;-143.29;100.00;62188.47;4992445;28;20416;-92
2023/10/18 09:33:51;;;;;;;14.10;6.13;;;;;;;-143.29;100.00;62188.47;4991526;28;20553;-92
2023/10/18 09:36:23;;;;;;;11.38;6.25;;;;;;;-143.29;100.00;62188.47;4991811;28;20039;-90
2023/10/18 09:38:49;;;;;;;17.77;6.45;;;;;;;-143.29;100.00;62188.47;4992131;28;20030;-92
2023/10/18 09:41:16;;;;;;;8.90;5.25;;;;;;;-143.29;100.00;62188.47;4991102;28;20037;-91
2023/10/18 09:43:42;;;;;;;12.43;5.50;;;;;;;-143.29;100.00;62188.47;4991251;28;20087;-91
2023/10/18 09:46:08;;;;;;;41.17;10.27;;;;;;;-143.29;100.00;62188.47;4991963;28;20070;-91
2023/10/18 09:48:38;;;;;;;27.95;7.55;;;;;;;-143.29;100.00;62188.47;4990928;28;20072;-91
2023/10/18 09:51:09;;;;;;;49.55;9.38;;;;;;;-143.29;100.00;62188.47;4989872;28;20527;-92
2023/10/18 09:53:53;;;;;;;44.90;8.52;;;;;;;-143.29;100.00;62188.47;4992227;28;20022;-93
2023/10/18 09:56:24;;;;;;;16.38;6.40;;;;;;;-143.29;100.00;62188.47;4991911;28;20022;-92
2023/10/18 09:58:51;;;;;;;14.00;6.60;;;;;;;-143.29;100.00;62188.47;4974476;28;20045;-92
2023/10/18 10:01:27;;;;;;;28.08;8.18;;;;;;;-143.29;100.00;62188.47;4974580;28;20037;-93
2023/10/18 10:03:53;;;;;;;54.10;10.07;;;;;;;-143.29;100.00;62188.47;4972786;28;20030;-93
2023/10/18 10:06:27;;;;;;;24.58;6.85;;;;;;;-143.29;100.00;62188.47;4974375;28;20031;-92
2023/10/18 10:09:12;;;;;;;16.52;6.68;;;;;;;-143.29;100.00;62188.47;4992387;28;20515;-92
2023/10/18 10:11:46;;;;;;;11.85;6.55;;;;;;;-143.29;100.00;62188.47;4974720;28;20035;-92
2023/10/18 10:14:15;;;;;;;14.93;7.10;;;;;;;-143.29;100.00;62188.47;4992145;28;20054;-92
2023/10/18 10:16:46;;;;;;;13.60;6.32;;;;;;;-143.29;100.00;62188.47;4992372;28;20109;-93
2023/10/18 10:19:13;;;;;;;13.52;6.95;;;;;;;-143.29;100.00;62188.47;4990982;28;20662;-92
2023/10/18 10:21:41;;;;;;;10.60;6.28;;;;;;;-143.29;100.00;62188.47;4992214;28;20508;-92
2023/10/18 10:24:29;;;;;;;16.63;6.80;;;;;;;-143.29;100.00;62188.47;4992207;28;20054;-92
2023/10/18 10:26:53;;;;;;;15.60;6.97;;;;;;;-143.29;100.00;62188.47;4991556;28;20030;-92
2023/10/18 10:31:58;;;;;;;12.57;6.45;;;;;;;-143.29;100.00;62188.47;4992361;28;20058;-92
2023/10/18 10:34:34;;;;;;;12.65;7.05;;;;;;;-143.29;100.00;62188.47;4991868;28;20548;-92
2023/10/18 10:37:24;;;;;;;13.10;6.47;;;;;;;-143.29;100.00;62188.47;4974225;28;20042;-92
2023/10/18 10:40:18;;;;;;;14.40;6.80;;;;;;;-143.29;100.00;62188.47;4991838;28;20469;-92
2023/10/18 10:42:44;;;;;;;10.88;6.32;;;;;;;-143.29;100.00;62188.47;4991878;28;20481;-92
2023/10/18 10:45:30;;;;;;;;;;;;;;;-143.29;100.00;62188.47;4991267;28;20393;-91
2023/10/18 10:47:57;;;;;;;11.57;6.93;;;;;;;-143.29;100.00;62188.47;4993070;28;19926;-91
2023/10/18 10:50:50;;;;;;;11.52;7.40;;;;;;;-143.29;100.00;62188.47;4991632;28;20113;-92
2023/10/18 10:53:44;;;;;;;16.70;7.10;;;;;;;-143.29;100.00;62188.47;4993421;28;20030;-92
2023/10/18 10:56:18;;;;;;;22.67;8.63;;;;;;;-143.29;100.00;62188.47;4993604;28;20034;-91
2023/10/18 11:04:29;;;;;;;15.40;8.13;;;;;;;-143.29;100.00;62188.47;4994414;28;20054;-92
2023/10/18 11:07:03;;;;;;;12.40;7.38;;;;;;;-143.29;100.00;62188.47;4970570;28;20022;-91
2023/10/18 11:09:36;;;;;;;17.63;7.90;;;;;;;-143.29;100.00;62188.47;4977381;28;20092;-93
2023/10/18 11:12:17;;;;;;;16.38;8.05;;;;;;;-143.29;100.00;62188.47;4977347;28;20033;-92
2023/10/18 11:14:43;;;;;;;17.75;7.35;;;;;;;-143.29;100.00;62188.47;4978268;28;20182;-93
2023/10/18 11:19:41;;;;;;;16.17;8.10;;;;;;;-143.29;100.00;62188.47;4992607;28;20054;-91
2023/10/18 11:22:13;;;;;;;11.75;6.95;;;;;;;-143.29;100.00;62188.47;4993036;28;20030;-92
2023/10/18 11:24:39;;;;;;;19.65;8.30;;;;;;;-143.29;100.00;62188.47;4974004;28;20088;-91
2023/10/18 11:27:08;;;;;;;15.18;8.45;;;;;;;-143.29;100.00;62188.47;4976943;28;20065;-92
2023/10/18 11:29:41;;;;;;;12.25;7.40;;;;;;;-143.29;100.00;62188.47;4977566;28;20488;-91
2023/10/18 11:32:08;;;;;;;15.27;7.93;;;;;;;-143.29;100.00;62188.47;4991806;28;20026;-91
2023/10/18 11:34:45;;;;;;;16.15;9.27;;;;;;;-143.29;100.00;62188.47;4994358;28;20489;-92
2023/10/18 11:37:26;;;;;;;17.27;7.50;;;;;;;-143.29;100.00;62188.47;4993506;28;20057;-94
2023/10/18 11:39:55;;;;;;;10.63;7.03;;;;;;;-143.29;100.00;62188.47;4994735;28;20101;-90
2023/10/18 11:42:21;;;;;;;14.98;7.65;;;;;;;-143.29;100.00;62188.47;4994564;28;20038;-90
2023/10/18 11:44:52;;;;;;;13.90;8.65;;;;;;;-143.29;100.00;62188.47;4994597;28;20480;-89
2023/10/18 11:47:20;;;;;;;14.25;7.15;;;;;;;-143.29;100.00;62188.47;4992450;28;20125;-89
2023/10/18 11:49:53;;;;;;;15.18;7.40;;;;;;;-143.29;100.00;62188.47;4994245;28;20030;-88
2023/10/18 11:52:25;;;;;;;13.02;7.43;;;;;;;-143.29;100.00;62188.47;4994045;28;20033;-90
2023/10/18 11:54:55;;;;;;;17.42;6.97;;;;;;;-143.29;100.00;62188.47;4994444;28;20033;-89
2023/10/18 11:57:46;;;;;;;15.13;6.85;;;;;;;-143.29;100.00;62188.47;4991227;28;20097;-90
2023/10/18 12:02:51;;;;;;;12.55;6.95;;;;;;;-143.29;100.00;62188.47;4994433;28;20489;-90
2023/10/18 12:05:23;;;;;;;13.80;7.18;;;;;;;-143.29;100.00;62188.47;4976289;28;20034;-90
2023/10/18 12:07:48;;;;;;;;;;;;;;;-143.29;100.00;62188.47;4994574;28;20030;-90
2023/10/18 12:10:17;;;;;;;14.57;6.85;;;;;;;-143.29;100.00;62188.47;4992546;28;19959;-90
2023/10/18 12:12:49;;;;;;;15.20;7.10;;;;;;;-143.29;100.00;62188.47;4976419;28;20038;-92
2023/10/18 12:15:15;;;;;;;8.68;6.65;;;;;;;-143.29;100.00;62188.47;4976225;28;20100;-92
2023/10/18 12:17:41;;;;;;;10.75;7.47;;;;;;;-143.29;100.00;62188.47;4993705;28;20030;-92
2023/10/18 12:20:08;;;;;;;13.43;7.18;;;;;;;-143.29;100.00;62188.47;4993466;28;20033;-89
2023/10/18 12:22:36;;;;;;;13.77;6.93;;;;;;;-143.29;100.00;62188.47;4993957;28;20033;-92